Time;durP1;ratioP1;P1;durP2;ratioP2;P2;SDS_P1;SDS_P2;PMS_P1;PMS_P2;Temp;Humidity;BMP_temperature;BMP_pressure;BME280_temperature;BME280_humidity;BME280_pressure;Samples;Min_cycle;Max_cycle;Signal;HPM_P1;HPM_P2
2021/11/15 00:00:36;;;;;;;3.58;1.52;;;;;;;1.89;61.66;100819.06;5049379;28;20076;-55
2021/11/15 00:03:02;;;;;;;1.88;1.15;;;;;;;1.89;61.55;100821.69;5049876;28;20025;-55
2021/11/15 00:05:28;;;;;;;3.22;1.75;;;;;;;1.91;61.41;100825.16;5050773;28;20229;-52
2021/11/15 00:07:53;;;;;;;4.63;1.50;;;;;;;1.90;61.39;100819.91;5050184;28;20033;-56
2021/11/15 00:10:19;;;;;;;1.85;1.38;;;;;;;1.86;61.60;100827.94;5051017;28;20132;-57
2021/11/15 00:12:50;;;;;;;2.20;1.17;;;;;;;1.88;61.75;100833.19;5051673;28;20025;-56
2021/11/15 00:15:16;;;;;;;5.57;1.40;;;;;;;1.85;61.92;100825.34;5051532;28;20040;-53
2021/11/15 00:17:43;;;;;;;1.58;1.10;;;;;;;1.68;61.98;100802.03;5051314;28;20021;-57
2021/11/15 00:20:09;;;;;;;1.40;1.02;;;;;;;1.83;62.31;100827.16;5051295;28;20028;-57
2021/11/15 00:22:35;;;;;;;1.75;0.90;;;;;;;1.78;61.73;100813.19;5051592;28;20029;-56
2021/11/15 00:25:00;;;;;;;0.80;0.70;;;;;;;1.81;62.22;100837.75;5050883;28;20047;-55
2021/11/15 00:27:26;;;;;;;1.15;0.80;;;;;;;1.80;62.19;100841.31;5051044;28;20041;-59
2021/11/15 00:29:52;;;;;;;0.88;0.70;;;;;;;1.82;62.09;100844.78;5050650;28;20388;-59
2021/11/15 00:32:18;;;;;;;1.08;0.80;;;;;;;1.85;61.93;100842.03;5051256;28;20048;-55
2021/11/15 00:34:44;;;;;;;0.70;0.52;;;;;;;1.82;61.40;100841.28;5049897;28;20420;-55
2021/11/15 00:37:09;;;;;;;1.33;0.90;;;;;;;1.79;60.83;100843.97;5051314;28;20445;-52
2021/11/15 00:39:35;;;;;;;0.82;0.60;;;;;;;1.83;60.96;100859.69;5049933;28;20025;-53
2021/11/15 00:42:00;;;;;;;1.75;0.60;;;;;;;1.82;61.14;100857.97;5050669;28;20025;-59
2021/11/15 00:44:26;;;;;;;0.43;0.40;;;;;;;1.81;61.09;100865.91;5050888;28;20033;-52
2021/11/15 00:46:51;;;;;;;0.60;0.52;;;;;;;1.75;60.35;100859.06;5051077;28;20442;-54
2021/11/15 00:49:17;;;;;;;1.35;0.50;;;;;;;1.75;60.56;100859.06;5050054;28;20378;-54
2021/11/15 00:51:43;;;;;;;1.10;0.50;;;;;;;1.69;60.48;100861.88;5051165;28;20079;-57
2021/11/15 00:54:08;;;;;;;1.20;0.50;;;;;;;1.78;60.99;100874.81;5050343;28;20025;-54
2021/11/15 00:56:34;;;;;;;2.33;0.55;;;;;;;1.76;61.28;100878.38;5050634;28;20025;-58
2021/11/15 00:58:59;;;;;;;2.05;0.52;;;;;;;1.78;60.96;100890.66;5051072;28;20040;-54
2021/11/15 01:01:25;;;;;;;0.85;0.50;;;;;;;1.78;60.68;100884.50;5050661;28;20466;-53
2021/11/15 01:03:51;;;;;;;0.65;0.40;;;;;;;1.68;60.61;100889.16;5050850;28;20548;-55
2021/11/15 01:06:16;;;;;;;0.50;0.50;;;;;;;1.68;61.27;100890.03;5050682;28;20488;-54
2021/11/15 01:08:42;;;;;;;0.43;0.35;;;;;;;1.41;60.52;100844.97;5050480;28;20036;-50
2021/11/15 01:11:08;;;;;;;0.50;0.40;;;;;;;1.54;59.76;100881.59;5050537;28;20046;-56
2021/11/15 01:13:33;;;;;;;0.70;0.40;;;;;;;1.61;60.04;100888.47;5050992;28;20120;-54
2021/11/15 01:15:59;;;;;;;0.73;0.30;;;;;;;1.62;60.00;100899.88;5050705;28;20072;-53
2021/11/15 01:18:25;;;;;;;1.90;0.40;;;;;;;1.64;59.81;100900.72;5050339;28;20404;-53
2021/11/15 01:20:50;;;;;;;0.60;0.40;;;;;;;1.49;59.51;100872.94;5049607;28;20029;-56
2021/11/15 01:23:17;;;;;;;0.40;0.30;;;;;;;1.67;59.04;100904.16;5050738;28;20519;-54
2021/11/15 01:25:44;;;;;;;0.57;0.30;;;;;;;1.69;59.96;100912.88;5047822;28;20084;-53
2021/11/15 01:28:11;;;;;;;0.50;0.38;;;;;;;1.69;61.00;100912.03;5050377;28;20153;-53
2021/11/15 01:30:37;;;;;;;1.35;0.28;;;;;;;1.64;61.83;100906.88;5050751;28;20159;-55
2021/11/15 01:33:04;;;;;;;0.82;0.38;;;;;;;1.59;62.12;100924.59;5049952;28;20025;-56
2021/11/15 01:35:30;;;;;;;0.52;0.32;;;;;;;1.51;62.47;100926.56;5048717;28;20473;-57
2021/11/15 01:37:56;;;;;;;0.70;0.45;;;;;;;1.48;62.80;100930.16;5049127;28;20041;-56
2021/11/15 01:40:25;;;;;;;0.60;0.40;;;;;;;1.35;63.28;100900.56;5052039;28;20060;-57
2021/11/15 01:42:52;;;;;;;0.75;0.50;;;;;;;1.48;62.92;100919.59;5051538;28;20461;-56
2021/11/15 01:45:23;;;;;;;0.32;0.20;;;;;;;1.52;61.98;100908.06;5052084;28;20441;-56
2021/11/15 01:47:50;;;;;;;0.40;0.40;;;;;;;1.57;62.37;100927.28;5052035;28;20405;-56
2021/11/15 01:50:17;;;;;;;0.60;0.35;;;;;;;1.50;61.83;100928.34;5052287;28;20033;-54
2021/11/15 01:52:44;;;;;;;0.38;0.38;;;;;;;1.55;61.71;100937.00;5052896;28;20029;-56
2021/11/15 01:55:10;;;;;;;0.47;0.45;;;;;;;1.57;61.74;100939.63;5053574;28;20080;-59
2021/11/15 01:57:36;;;;;;;0.98;0.47;;;;;;;1.60;61.67;100936.91;5054133;28;20071;-58
2021/11/15 02:00:10;;;;;;;0.90;0.70;;;;;;;1.68;62.17;100942.84;5054356;28;20025;-52
2021/11/15 02:02:35;;;;;;;0.60;0.35;;;;;;;1.67;61.77;100950.78;5053194;28;20489;-53
2021/11/15 02:05:01;;;;;;;0.93;0.43;;;;;;;1.64;60.90;100935.03;5053625;28;20025;-56
2021/11/15 02:07:28;;;;;;;0.98;0.40;;;;;;;1.67;61.24;100940.22;5053813;28;20445;-56
2021/11/15 02:09:53;;;;;;;0.20;0.20;;;;;;;1.67;61.09;100956.94;5053702;28;20051;-57
2021/11/15 02:12:19;;;;;;;1.30;0.50;;;;;;;1.68;61.16;100957.78;5053648;28;20025;-56
2021/11/15 02:14:45;;;;;;;0.90;0.43;;;;;;;1.59;61.47;100953.66;5053627;28;20083;-55
2021/11/15 02:17:11;;;;;;;0.90;0.40;;;;;;;1.56;61.89;100970.41;5053456;28;20385;-57
2021/11/15 02:19:38;;;;;;;0.75;0.30;;;;;;;1.54;62.62;100980.16;5053887;28;20377;-55
2021/11/15 02:22:03;;;;;;;0.98;0.38;;;;;;;1.53;62.89;100982.81;5053618;28;20124;-59
2021/11/15 02:24:30;;;;;;;0.45;0.45;;;;;;;1.53;63.19;100973.13;5053153;28;20037;-56
2021/11/15 02:26:56;;;;;;;2.20;0.50;;;;;;;1.49;63.66;100979.41;5053426;28;20127;-57
2021/11/15 02:29:22;;;;;;;2.28;0.65;;;;;;;1.51;64.08;100971.41;5053206;28;20048;-57
2021/11/15 02:31:47;;;;;;;0.68;0.40;;;;;;;1.46;63.83;100961.00;5052954;28;20051;-55
2021/11/15 02:34:13;;;;;;;1.15;0.50;;;;;;;1.51;63.85;100977.59;5053043;28;20036;-55
2021/11/15 02:36:39;;;;;;;1.83;0.50;;;;;;;1.53;63.44;100982.81;5051896;28;20053;-53
2021/11/15 02:39:05;;;;;;;0.45;0.32;;;;;;;1.48;63.33;100979.41;5051737;28;20032;-55
2021/11/15 02:41:31;;;;;;;1.17;0.45;;;;;;;1.47;62.42;100977.69;5051235;28;20102;-57
2021/11/15 02:43:57;;;;;;;1.20;0.43;;;;;;;1.44;62.42;100968.06;5052720;28;20037;-55
2021/11/15 02:46:23;;;;;;;0.50;0.32;;;;;;;1.47;61.83;100990.88;5053051;28;20381;-57
2021/11/15 02:48:49;;;;;;;1.27;0.38;;;;;;;1.48;61.48;100998.78;5051136;28;20036;-55
2021/11/15 02:51:15;;;;;;;1.00;0.35;;;;;;;1.49;61.38;100994.34;5052816;28;20033;-52
2021/11/15 02:53:41;;;;;;;0.20;0.20;;;;;;;1.45;61.65;101009.41;5053072;28;20053;-57
2021/11/15 02:56:07;;;;;;;0.60;0.28;;;;;;;1.47;61.26;100996.16;5052696;28;20450;-55
2021/11/15 02:58:34;;;;;;;1.10;0.40;;;;;;;1.49;61.88;100999.63;5052629;28;20047;-57
2021/11/15 03:01:12;;;;;;;0.60;0.38;;;;;;;1.51;62.17;100997.81;5052797;28;20102;-50
2021/11/15 03:03:39;;;;;;;1.17;0.50;;;;;;;1.49;61.75;101005.78;5052477;28;20039;-57
2021/11/15 03:06:04;;;;;;;1.27;0.47;;;;;;;1.50;61.74;101012.81;5051794;28;20488;-56
2021/11/15 03:08:30;;;;;;;1.75;0.40;;;;;;;1.49;62.25;101005.78;5052482;28;20033;-51
2021/11/15 03:10:58;;;;;;;0.95;0.57;;;;;;;1.55;61.85;101004.75;5052091;28;20094;-52
2021/11/15 03:13:26;;;;;;;2.05;0.60;;;;;;;1.46;62.07;101000.59;5052394;28;20037;-57
2021/11/15 03:15:53;;;;;;;0.75;0.55;;;;;;;1.56;62.31;101017.94;5052442;28;20040;-54
2021/11/15 03:18:38;;;;;;;2.00;0.50;;;;;;;1.49;62.34;100994.34;5052268;28;20536;-57
2021/11/15 03:21:07;;;;;;;1.08;0.55;;;;;;;1.63;61.81;101023.06;5052146;28;20025;-56
2021/11/15 03:23:35;;;;;;;0.98;0.40;;;;;;;1.65;61.87;101032.69;5052219;28;20029;-58
2021/11/15 03:26:01;;;;;;;1.58;0.55;;;;;;;1.63;61.78;101041.53;5052651;28;20041;-57
2021/11/15 03:28:30;;;;;;;0.57;0.50;;;;;;;1.63;62.24;101036.25;5051940;28;20465;-53
2021/11/15 03:31:01;;;;;;;1.30;0.60;;;;;;;1.63;62.25;101050.34;5035540;28;20462;-55
2021/11/15 03:33:29;;;;;;;0.88;0.43;;;;;;;1.56;62.15;101025.84;5032186;28;20040;-57
2021/11/15 03:35:54;;;;;;;0.47;0.30;;;;;;;1.61;62.33;101038.06;5032143;28;20128;-56
2021/11/15 03:38:20;;;;;;;0.52;0.40;;;;;;;1.60;62.35;101038.97;5031961;28;20474;-56
2021/11/15 03:40:46;;;;;;;0.30;0.30;;;;;;;1.58;62.37;101033.75;5031844;28;20041;-59
2021/11/15 03:43:12;;;;;;;0.55;0.32;;;;;;;1.63;62.76;101034.50;5031825;28;20125;-55
2021/11/15 03:45:38;;;;;;;0.90;0.35;;;;;;;1.63;62.51;101039.78;5032413;28;20124;-55
2021/11/15 03:48:06;;;;;;;1.10;0.28;;;;;;;1.65;62.28;101037.06;5031554;28;20025;-55
2021/11/15 03:50:32;;;;;;;0.77;0.40;;;;;;;1.65;61.94;101045.88;5031359;28;20068;-55
2021/11/15 03:53:00;;;;;;;1.10;0.30;;;;;;;1.66;62.32;101049.38;5031656;28;20057;-54
2021/11/15 03:55:26;;;;;;;0.35;0.30;;;;;;;1.66;62.14;101049.38;5031690;28;20072;-54
2021/11/15 03:57:54;;;;;;;0.73;0.45;;;;;;;1.41;62.20;101002.44;5031280;28;20069;-50
2021/11/15 04:00:25;;;;;;;1.60;0.40;;;;;;;1.71;62.29;101060.72;5031140;28;20030;-56
2021/11/15 04:02:55;;;;;;;1.17;0.50;;;;;;;1.72;61.75;101073.88;5031858;28;20033;-57
2021/11/15 04:05:27;;;;;;;0.80;0.40;;;;;;;1.72;62.20;101067.72;5031798;28;20030;-53
2021/11/15 04:07:54;;;;;;;1.85;0.40;;;;;;;1.66;61.82;101044.97;5031317;28;20021;-53
2021/11/15 04:10:24;;;;;;;1.02;0.40;;;;;;;1.77;61.64;101067.59;5030967;28;20029;-56
2021/11/15 04:12:52;;;;;;;2.50;0.45;;;;;;;1.55;62.41;101042.59;5031390;28;20088;-58
2021/11/15 04:15:17;;;;;;;0.77;0.60;;;;;;;1.73;61.83;101077.38;5031637;28;20484;-54
2021/11/15 04:17:45;;;;;;;2.03;0.60;;;;;;;1.78;62.04;101080.78;5031098;28;20112;-57
2021/11/15 04:20:14;;;;;;;0.60;0.50;;;;;;;1.71;61.89;101074.78;5031344;28;20022;-58
2021/11/15 04:22:40;;;;;;;1.13;0.60;;;;;;;1.76;61.96;101114.28;5031491;28;20466;-54
2021/11/15 04:25:08;;;;;;;2.85;0.50;;;;;;;1.50;62.11;101086.69;5031054;28;20037;-56
2021/11/15 04:27:34;;;;;;;2.50;0.63;;;;;;;1.65;62.19;101118.91;5029614;28;20038;-54
2021/11/15 04:30:03;;;;;;;1.20;0.40;;;;;;;1.62;61.27;101121.63;5030751;28;20061;-54
2021/11/15 04:32:29;;;;;;;0.28;0.20;;;;;;;1.46;60.41;101134.31;5029389;28;20109;-56
2021/11/15 04:34:54;;;;;;;0.35;0.22;;;;;;;1.39;60.69;101139.72;5031069;28;20048;-55
2021/11/15 04:37:20;;;;;;;1.55;0.47;;;;;;;1.34;61.64;101146.00;5031266;28;20116;-52
2021/11/15 04:39:45;;;;;;;1.63;0.70;;;;;;;1.29;60.85;101154.88;5030707;28;20079;-58
2021/11/15 04:42:11;;;;;;;1.17;0.50;;;;;;;1.29;60.58;101160.16;5031240;28;20109;-55
2021/11/15 04:44:37;;;;;;;0.70;0.47;;;;;;;1.14;60.66;101148.16;5031017;28;20026;-58
2021/11/15 04:47:04;;;;;;;0.98;0.45;;;;;;;1.16;60.91;101166.56;5030808;28;20021;-55
2021/11/15 04:49:29;;;;;;;0.73;0.40;;;;;;;1.09;60.18;101175.50;5029863;28;20386;-55
2021/11/15 04:51:55;;;;;;;0.90;0.50;;;;;;;0.90;60.43;101138.94;5030805;28;20060;-56
2021/11/15 04:54:21;;;;;;;1.00;0.50;;;;;;;1.18;60.49;101191.16;5030930;28;20022;-57
2021/11/15 04:56:47;;;;;;;0.80;0.50;;;;;;;1.21;60.27;101184.94;5031229;28;20456;-53
2021/11/15 04:59:13;;;;;;;1.77;0.80;;;;;;;1.14;60.58;101173.63;5030760;28;20057;-52
2021/11/15 05:01:39;;;;;;;2.08;0.70;;;;;;;1.22;59.47;101176.13;5030790;28;20030;-53
2021/11/15 05:04:05;;;;;;;3.90;1.17;;;;;;;1.31;59.51;101196.19;5031076;28;20075;-55
2021/11/15 05:06:31;;;;;;;1.27;0.50;;;;;;;0.86;58.82;101113.53;5030532;28;20026;-54
2021/11/15 05:08:56;;;;;;;1.42;0.60;;;;;;;1.29;58.61;101191.81;5030405;28;20033;-54
2021/11/15 05:11:22;;;;;;;2.53;0.80;;;;;;;1.30;58.86;101197.94;5030826;28;20039;-57
2021/11/15 05:13:48;;;;;;;2.35;1.10;;;;;;;1.29;58.60;101196.22;5032609;28;20026;-58
2021/11/15 05:16:13;;;;;;;2.10;0.93;;;;;;;1.34;58.86;101211.97;5034541;28;20518;-54
2021/11/15 05:18:39;;;;;;;1.73;0.85;;;;;;;1.35;58.92;101211.94;5034407;28;20139;-53
2021/11/15 05:21:04;;;;;;;1.75;0.82;;;;;;;1.34;58.50;101214.59;5034657;28;20457;-56
2021/11/15 05:23:30;;;;;;;2.72;0.70;;;;;;;1.39;58.69;101218.91;5034314;28;20465;-53
2021/11/15 05:25:56;;;;;;;2.40;1.20;;;;;;;1.41;58.16;101225.00;5032731;28;20438;-55
2021/11/15 05:28:21;;;;;;;2.10;0.90;;;;;;;1.39;58.00;101228.56;5034332;28;20102;-56
2021/11/15 05:30:47;;;;;;;0.70;0.40;;;;;;;1.43;57.85;101235.50;5034357;28;20030;-55
2021/11/15 05:33:13;;;;;;;0.82;0.63;;;;;;;1.41;57.35;101253.16;5034220;28;20029;-55
2021/11/15 05:35:38;;;;;;;1.40;0.52;;;;;;;1.33;58.16;101233.97;5033838;28;20029;-56
2021/11/15 05:38:05;;;;;;;0.82;0.60;;;;;;;1.42;58.23;101253.13;5034489;28;20057;-57
2021/11/15 05:40:31;;;;;;;1.80;0.88;;;;;;;1.45;58.40;101249.59;5034154;28;20025;-55
2021/11/15 05:42:57;;;;;;;1.00;0.60;;;;;;;1.48;58.34;101257.44;5033942;28;20087;-58
2021/11/15 05:45:24;;;;;;;1.52;0.80;;;;;;;1.50;57.79;101260.91;5033721;28;20436;-56
2021/11/15 05:47:50;;;;;;;2.42;1.20;;;;;;;1.50;57.77;101275.88;5034081;28;20026;-52
2021/11/15 05:50:17;;;;;;;3.55;1.20;;;;;;;1.43;58.19;101273.34;5033834;28;20079;-54
2021/11/15 05:52:43;;;;;;;1.98;1.00;;;;;;;1.52;57.69;101288.16;5033799;28;20600;-53
2021/11/15 05:55:17;;;;;;;3.85;1.50;;;;;;;1.56;58.30;101286.28;5033421;28;20083;-57
2021/11/15 05:57:43;;;;;;;3.67;1.45;;;;;;;1.57;57.68;101285.44;5033862;28;20029;-57
2021/11/15 06:00:15;;;;;;;2.60;1.40;;;;;;;1.62;57.38;101293.22;5034193;28;20040;-58
2021/11/15 06:02:41;;;;;;;2.15;1.00;;;;;;;1.59;57.73;101288.91;5035862;28;20051;-57
2021/11/15 06:05:08;;;;;;;0.82;0.55;;;;;;;1.61;56.97;101284.47;5042975;28;20036;-57
2021/11/15 06:07:34;;;;;;;1.40;0.75;;;;;;;2.09;57.14;101306.38;5042056;28;20049;-58
2021/11/15 06:10:00;;;;;;;4.55;1.02;;;;;;;4.92;50.53;101278.38;5042041;28;20028;-59
2021/11/15 06:12:25;;;;;;;1.60;0.88;;;;;;;7.30;44.44;101288.88;5043412;28;20381;-56
2021/11/15 06:14:51;;;;;;;1.00;0.75;;;;;;;8.39;41.15;101294.63;5041392;28;20018;-58
2021/11/15 06:17:17;;;;;;;2.33;1.25;;;;;;;7.95;41.46;101294.91;5042274;28;20021;-57
2021/11/15 06:19:43;;;;;;;2.25;1.40;;;;;;;7.23;43.12;101298.03;5042964;28;20171;-53
2021/11/15 06:22:09;;;;;;;4.28;1.30;;;;;;;6.66;44.23;101306.59;5040460;28;20033;-57
2021/11/15 06:24:34;;;;;;;2.38;1.23;;;;;;;6.28;44.68;101311.66;5052696;28;20064;-54
2021/11/15 06:27:01;;;;;;;2.60;1.55;;;;;;;6.15;45.09;101314.78;5053079;28;20060;-59
2021/11/15 06:29:27;;;;;;;2.22;1.30;;;;;;;5.71;45.13;101310.19;5052734;28;20087;-57
2021/11/15 06:31:53;;;;;;;1.88;1.33;;;;;;;5.22;46.63;101317.22;5053081;28;20033;-55
2021/11/15 06:34:19;;;;;;;2.00;1.35;;;;;;;5.17;47.14;101328.00;5052997;28;20029;-57
2021/11/15 06:36:45;;;;;;;2.53;1.30;;;;;;;4.91;47.40;101332.38;5052242;28;20025;-56
2021/11/15 06:39:10;;;;;;;2.65;1.55;;;;;;;4.44;48.75;101336.50;5052970;28;20029;-54
2021/11/15 06:41:36;;;;;;;2.53;1.40;;;;;;;3.78;50.07;101310.16;5052946;28;20079;-52
2021/11/15 06:44:03;;;;;;;5.13;1.77;;;;;;;3.68;50.84;101351.06;5051479;28;20033;-56
2021/11/15 06:46:28;;;;;;;3.40;1.45;;;;;;;3.30;51.00;101335.28;5052894;28;20029;-54
2021/11/15 06:48:54;;;;;;;1.13;0.98;;;;;;;3.05;51.59;101345.63;5052498;28;20040;-55
2021/11/15 06:51:20;;;;;;;5.45;1.80;;;;;;;2.98;52.23;101358.13;5052945;28;20060;-57
2021/11/15 06:53:45;;;;;;;2.17;1.60;;;;;;;2.84;52.59;101338.16;5052890;28;20083;-56
2021/11/15 06:56:12;;;;;;;2.22;1.60;;;;;;;2.88;52.42;101360.09;5052358;28;20025;-58
2021/11/15 06:58:37;;;;;;;2.85;1.67;;;;;;;2.80;52.84;101368.25;5052643;28;20029;-56
2021/11/15 07:01:04;;;;;;;2.90;1.83;;;;;;;2.83;52.45;101380.50;5052857;28;20094;-57
2021/11/15 07:03:30;;;;;;;2.63;1.50;;;;;;;2.76;52.29;101381.56;5052243;28;20136;-57
2021/11/15 07:05:56;;;;;;;3.42;1.98;;;;;;;2.71;53.05;101379.91;5052266;28;20033;-57
2021/11/15 07:08:22;;;;;;;3.70;2.00;;;;;;;2.71;52.86;101385.19;5052233;28;20079;-57
2021/11/15 07:10:48;;;;;;;2.38;1.60;;;;;;;2.79;52.94;101397.38;5052471;28;20091;-56
2021/11/15 07:13:14;;;;;;;2.17;1.58;;;;;;;2.81;52.73;101392.91;5050886;28;20040;-59
2021/11/15 07:15:44;;;;;;;3.40;1.58;;;;;;;2.84;53.00;101406.06;5052532;28;20487;-57
2021/11/15 07:18:10;;;;;;;3.30;1.90;;;;;;;2.82;52.70;101414.06;5050724;28;20339;-57
2021/11/15 07:20:35;;;;;;;3.72;2.10;;;;;;;2.77;52.33;101415.06;5052527;28;20044;-57
2021/11/15 07:23:01;;;;;;;4.22;1.83;;;;;;;2.65;52.56;101387.09;5052240;28;20036;-54
2021/11/15 07:25:27;;;;;;;3.85;2.13;;;;;;;2.83;52.36;101430.78;5051348;28;20056;-56
2021/11/15 07:27:54;;;;;;;4.78;1.88;;;;;;;2.84;52.98;101433.41;5052096;28;20038;-57
2021/11/15 07:30:20;;;;;;;3.50;2.20;;;;;;;2.82;52.93;101429.03;5052060;28;20043;-51
2021/11/15 07:32:47;;;;;;;5.28;2.25;;;;;;;2.87;52.38;101435.09;5052068;28;20045;-57
2021/11/15 07:35:14;;;;;;;4.50;2.78;;;;;;;2.93;52.89;101448.19;5051219;28;20052;-57
2021/11/15 07:37:40;;;;;;;5.63;2.70;;;;;;;3.01;52.89;101445.34;5051592;28;20033;-57
2021/11/15 07:40:09;;;;;;;3.35;1.92;;;;;;;3.12;51.82;101463.63;5040123;28;20152;-53
2021/11/15 07:42:35;;;;;;;4.55;1.80;;;;;;;3.13;51.97;101466.25;5033704;28;20142;-59
2021/11/15 07:45:01;;;;;;;5.00;2.20;;;;;;;3.13;52.05;101471.56;5032216;28;20435;-55
2021/11/15 07:47:27;;;;;;;4.20;2.30;;;;;;;3.13;52.61;101470.66;5031968;28;20056;-55
2021/11/15 07:49:52;;;;;;;3.38;1.90;;;;;;;2.80;52.45;101425.56;5031516;28;20079;-57
2021/11/15 07:52:19;;;;;;;4.38;2.20;;;;;;;2.86;52.73;101452.75;5031721;28;20036;-58
2021/11/15 07:54:46;;;;;;;3.17;2.10;;;;;;;3.05;52.71;101483.22;5031152;28;20065;-55
2021/11/15 07:57:12;;;;;;;4.93;1.95;;;;;;;2.99;52.77;101477.16;5031751;28;20031;-59
2021/11/15 07:59:38;;;;;;;3.22;1.85;;;;;;;3.10;52.37;101491.91;5031609;28;20061;-60
2021/11/15 08:02:05;;;;;;;4.13;2.40;;;;;;;2.81;52.13;101456.41;5031286;28;20094;-56
2021/11/15 08:04:32;;;;;;;2.72;1.92;;;;;;;2.80;52.44;101500.50;5057285;28;20029;-55
2021/11/15 08:06:58;;;;;;;3.50;2.00;;;;;;;2.80;53.30;101512.84;5063542;28;20067;-53
2021/11/15 08:09:25;;;;;;;2.63;1.75;;;;;;;2.62;53.02;101480.59;5058507;28;20072;-52
2021/11/15 08:11:52;;;;;;;2.65;1.50;;;;;;;2.94;52.77;101504.63;5066440;28;20115;-55
2021/11/15 08:14:18;;;;;;;2.05;1.20;;;;;;;2.85;52.60;101471.28;5054315;28;20102;-54
2021/11/15 08:16:46;;;;;;;4.05;1.83;;;;;;;3.13;52.38;101520.94;5064219;28;20537;-51
2021/11/15 08:19:12;;;;;;;2.58;1.73;;;;;;;3.00;52.16;101518.59;5060798;28;20036;-57
2021/11/15 08:21:38;;;;;;;2.80;1.60;;;;;;;2.97;52.53;101531.00;5056751;28;20028;-52
2021/11/15 08:24:25;;;;;;;3.22;2.22;;;;;;;3.00;52.94;101534.47;5066719;28;20024;-49
2021/11/15 08:27:01;;;;;;;1.95;1.40;;;;;;;2.97;53.14;101537.19;5057031;28;20508;-50
2021/11/15 08:29:30;;;;;;;4.53;1.75;;;;;;;2.92;53.00;101528.47;5057550;28;20127;-51
2021/11/15 08:32:00;;;;;;;3.67;1.40;;;;;;;2.85;52.69;101529.50;5066623;28;20029;-55
2021/11/15 08:34:27;;;;;;;1.75;1.30;;;;;;;2.78;53.05;101527.88;5038748;28;20078;-57
2021/11/15 08:36:53;;;;;;;1.45;1.20;;;;;;;2.81;52.84;101538.41;5062730;28;20051;-57
2021/11/15 08:39:21;;;;;;;1.88;1.10;;;;;;;2.80;52.54;101540.19;5061507;28;20132;-57
2021/11/15 08:41:51;;;;;;;2.60;1.33;;;;;;;2.63;52.58;101507.91;5054901;28;20091;-56
2021/11/15 08:44:18;;;;;;;2.75;1.60;;;;;;;2.81;52.55;101539.28;5064542;28;20389;-60
2021/11/15 08:46:45;;;;;;;3.63;1.50;;;;;;;2.85;52.95;101548.00;5043941;28;20028;-54
2021/11/15 08:49:12;;;;;;;1.80;1.10;;;;;;;2.85;52.35;101555.94;5063578;28;20036;-56
2021/11/15 08:51:40;;;;;;;2.15;1.45;;;;;;;2.78;52.20;101556.97;5068285;28;20444;-53
2021/11/15 08:54:15;;;;;;;1.95;1.10;;;;;;;2.76;53.26;101564.09;5057880;28;20111;-57
2021/11/15 08:56:42;;;;;;;2.17;1.50;;;;;;;2.80;52.80;101569.28;5068078;28;20021;-57
2021/11/15 08:59:07;;;;;;;3.80;1.88;;;;;;;2.62;52.89;101535.25;5063660;28;20036;-59
2021/11/15 09:01:33;;;;;;;3.90;1.83;;;;;;;2.83;52.57;101578.91;5059620;28;20025;-58
2021/11/15 09:03:59;;;;;;;4.05;1.80;;;;;;;2.75;52.34;101583.50;5070502;28;20341;-54
2021/11/15 09:06:30;;;;;;;2.83;1.90;;;;;;;2.73;52.70;101600.28;5057874;28;20044;-57
2021/11/15 09:08:56;;;;;;;2.65;1.98;;;;;;;2.80;52.67;101608.09;5065968;28;20037;-60
2021/11/15 09:11:22;;;;;;;2.88;1.98;;;;;;;2.87;52.77;101594.72;5066008;28;20059;-59
2021/11/15 09:13:48;;;;;;;3.28;2.03;;;;;;;2.92;52.74;101601.69;5058446;28;20465;-61
2021/11/15 09:16:17;;;;;;;3.42;1.45;;;;;;;2.84;51.60;101596.53;5070420;28;20582;-59
2021/11/15 09:18:45;;;;;;;2.88;1.60;;;;;;;2.76;52.46;101596.69;5060871;28;20115;-60
2021/11/15 09:21:13;;;;;;;3.90;1.48;;;;;;;2.84;52.21;101596.53;5063682;28;20342;-62
2021/11/15 09:23:41;;;;;;;2.80;1.30;;;;;;;2.88;52.03;101595.56;5068027;28;20025;-57
2021/11/15 09:26:08;;;;;;;2.15;1.17;;;;;;;2.90;51.32;101598.19;5057076;28;20045;-63
2021/11/15 09:28:35;;;;;;;2.90;1.48;;;;;;;2.95;51.03;101596.31;5068599;28;20037;-58
2021/11/15 09:31:01;;;;;;;2.65;1.40;;;;;;;2.94;51.40;101595.47;5062472;28;20076;-62
2021/11/15 09:33:26;;;;;;;3.20;1.60;;;;;;;3.03;51.05;101597.06;5061309;28;20033;-60
2021/11/15 09:35:55;;;;;;;2.72;1.48;;;;;;;3.13;51.89;101608.28;5067694;28;20399;-56
2021/11/15 09:38:22;;;;;;;2.63;1.48;;;;;;;3.10;51.71;101588.06;5054805;28;20512;-59
2021/11/15 09:40:55;;;;;;;1.50;1.02;;;;;;;3.28;50.83;101617.72;5065581;28;20708;-63
2021/11/15 09:43:22;;;;;;;6.00;1.55;;;;;;;3.20;50.35;101622.28;5065139;28;20414;-55
2021/11/15 09:45:47;;;;;;;2.55;1.40;;;;;;;3.14;51.08;101626.81;5058010;28;20142;-61
2021/11/15 09:48:13;;;;;;;2.03;1.05;;;;;;;3.20;50.78;101632.88;5069683;28;20465;-56
2021/11/15 09:50:39;;;;;;;1.45;0.80;;;;;;;3.23;50.50;101623.09;5059052;28;20441;-59
2021/11/15 09:53:06;;;;;;;1.73;0.98;;;;;;;3.25;50.75;101628.34;5063642;28;20098;-55
2021/11/15 09:55:33;;;;;;;3.47;1.00;;;;;;;3.34;50.24;101640.50;5066307;28;20377;-56
2021/11/15 09:57:59;;;;;;;1.70;0.90;;;;;;;3.34;50.51;101643.16;5056234;28;20024;-61
2021/11/15 10:00:27;;;;;;;1.58;0.70;;;;;;;3.29;49.99;101648.56;5068049;28;20044;-65
2021/11/15 10:02:53;;;;;;;3.85;1.05;;;;;;;3.25;50.13;101650.41;5064891;28;20033;-64
2021/11/15 10:05:20;;;;;;;1.23;0.85;;;;;;;3.26;49.85;101649.50;5064097;28;20032;-63
2021/11/15 10:07:48;;;;;;;1.45;0.95;;;;;;;3.05;50.24;101608.47;5056142;28;20036;-62
2021/11/15 10:10:27;;;;;;;2.85;1.30;;;;;;;3.35;50.49;101652.84;5069370;28;20035;-62
2021/11/15 10:13:29;;;;;;;2.08;1.45;;;;;;;3.45;50.74;101651.78;5059042;28;20107;-62
2021/11/15 10:16:18;;;;;;;2.13;1.45;;;;;;;3.47;50.20;101657.91;5056065;28;20558;-61
2021/11/15 10:18:51;;;;;;;2.75;1.50;;;;;;;3.55;50.06;101663.91;5050044;28;20032;-63
2021/11/15 10:21:21;;;;;;;4.28;1.25;;;;;;;3.60;49.50;101655.84;5061168;28;20025;-64
2021/11/15 10:23:52;;;;;;;2.40;1.00;;;;;;;3.09;49.31;101549.28;5067438;28;20054;-62
2021/11/15 10:26:49;;;;;;;3.47;1.27;;;;;;;3.64;49.63;101661.97;5054141;28;20045;-63
2021/11/15 10:29:21;;;;;;;2.58;1.33;;;;;;;3.63;49.77;101649.63;5060498;28;20498;-62
2021/11/15 10:31:58;;;;;;;1.42;1.20;;;;;;;3.53;49.17;101655.13;5067465;28;20123;-64
2021/11/15 10:34:28;;;;;;;1.60;1.05;;;;;;;3.53;50.36;101668.34;5040123;28;20030;-62
2021/11/15 10:37:16;;;;;;;2.20;1.30;;;;;;;3.50;49.99;101660.47;5064476;28;20559;-62
2021/11/15 10:39:52;;;;;;;2.17;1.42;;;;;;;3.44;50.60;101657.97;5066302;28;20350;-61
2021/11/15 10:42:22;;;;;;;2.40;1.50;;;;;;;3.41;50.00;101664.19;5054345;28;20519;-59
2021/11/15 10:44:55;;;;;;;4.00;1.50;;;;;;;3.35;50.57;101671.38;5064589;28;20393;-59
2021/11/15 10:47:30;;;;;;;2.80;1.50;;;;;;;3.34;50.45;101662.59;5063386;28;20033;-60
2021/11/15 10:50:21;;;;;;;3.53;1.15;;;;;;;3.35;50.61;101682.88;5055559;28;20539;-62
2021/11/15 10:52:56;;;;;;;2.47;1.00;;;;;;;3.20;50.53;101678.75;5045964;28;20025;-63
2021/11/15 10:55:22;;;;;;;3.42;1.00;;;;;;;2.87;49.81;101644.97;5051345;28;20711;-63
2021/11/15 10:57:50;;;;;;;1.55;0.80;;;;;;;2.99;49.71;101688.84;5067497;28;20110;-53
2021/11/15 11:00:28;;;;;;;1.95;0.50;;;;;;;2.85;49.94;101677.63;5066516;28;20052;-62
2021/11/15 11:03:03;;;;;;;2.03;0.85;;;;;;;2.94;50.63;101703.94;5059827;28;20031;-62
2021/11/15 11:05:29;;;;;;;2.63;1.08;;;;;;;2.87;50.94;101683.78;5058437;28;20036;-64
2021/11/15 11:08:17;;;;;;;2.92;1.67;;;;;;;3.10;51.13;101703.63;5068537;28;20040;-62
2021/11/15 11:10:50;;;;;;;2.85;1.42;;;;;;;3.05;51.07;101718.75;5044264;28;20086;-60
2021/11/15 11:13:17;;;;;;;3.70;1.25;;;;;;;2.82;51.17;101699.75;5060732;28;20035;-62
2021/11/15 11:15:53;;;;;;;3.22;1.33;;;;;;;2.91;51.18;101724.28;5065275;28;20093;-58
2021/11/15 11:26:42;;;;;;;2.15;1.10;;;;;;;2.63;51.23;101693.91;5043119;28;20045;-63
2021/11/15 11:29:12;;;;;;;1.23;0.70;;;;;;;2.79;50.93;101728.91;5061547;28;20498;-64
2021/11/15 11:31:42;;;;;;;3.05;1.40;;;;;;;2.83;51.16;101745.59;5062314;28;20452;-62
2021/11/15 11:34:08;;;;;;;2.53;1.40;;;;;;;2.76;50.95;101741.31;5066528;28;20036;-61
2021/11/15 11:36:36;;;;;;;6.95;1.25;;;;;;;2.75;50.86;101742.22;5056700;28;20074;-62
2021/11/15 11:39:05;;;;;;;1.70;1.15;;;;;;;2.73;50.83;101744.88;5062244;28;20112;-63
2021/11/15 11:41:30;;;;;;;2.10;1.40;;;;;;;2.66;50.94;101745.88;5062482;28;20108;-62
2021/11/15 11:43:56;;;;;;;2.17;1.33;;;;;;;2.71;51.52;101744.91;5054645;28;20116;-63